Alzingen, Luxembourg
Current Conditions -  °F | °C
As of 2:20 AM on Thursday 23 Oct 2014 (Local Time) from ELLX Reporting Station
NA  
Wind Chill: 38°   Ceiling: NA
Heat Index: 43°   Visibility: 6mi
Dew Point: 41°   Wind: 8mph
Humidity: 93%   Direction: 260°W
Pressure: 30.21"   Gusts: NA
Location:  49.57°N, 6.16°E
Report Text: ELLX 230020Z AUTO 26007KT 9999 NDV 06/05 Q1023
Loading
Personal Weather Stations






























Interactive Weather Map
Tropical Storm Tracking
New forecast layout! Learn more

10-Day Weather Forecast

Advertisements
Track Severe Weather on mobile